sensor_id;sensor_type;location;lat;lon;timestamp;P1;durP1;ratioP1;P2;durP2;ratioP2
295;SDS011;132;48.770;9.200;2023-02-11T00:00:14;53.30;;;23.02;;
295;SDS011;132;48.770;9.200;2023-02-11T00:02:42;52.55;;;22.00;;
295;SDS011;132;48.770;9.200;2023-02-11T00:05:08;47.05;;;22.08;;
295;SDS011;132;48.770;9.200;2023-02-11T00:07:35;56.72;;;21.92;;
295;SDS011;132;48.770;9.200;2023-02-11T00:10:01;48.28;;;22.17;;
295;SDS011;132;48.770;9.200;2023-02-11T00:12:29;56.42;;;22.23;;
295;SDS011;132;48.770;9.200;2023-02-11T00:14:55;53.03;;;22.98;;
295;SDS011;132;48.770;9.200;2023-02-11T00:17:22;58.00;;;23.45;;
295;SDS011;132;48.770;9.200;2023-02-11T00:19:48;51.28;;;22.90;;
295;SDS011;132;48.770;9.200;2023-02-11T00:22:16;51.15;;;23.30;;
295;SDS011;132;48.770;9.200;2023-02-11T00:24:43;58.00;;;23.85;;
295;SDS011;132;48.770;9.200;2023-02-11T00:27:09;62.25;;;24.45;;
295;SDS011;132;48.770;9.200;2023-02-11T00:29:36;50.58;;;22.27;;
295;SDS011;132;48.770;9.200;2023-02-11T00:32:03;46.25;;;20.23;;
295;SDS011;132;48.770;9.200;2023-02-11T00:34:30;53.20;;;23.60;;
295;SDS011;132;48.770;9.200;2023-02-11T00:36:58;54.95;;;23.20;;
295;SDS011;132;48.770;9.200;2023-02-11T00:39:24;55.58;;;22.75;;
295;SDS011;132;48.770;9.200;2023-02-11T00:41:51;56.83;;;24.48;;
295;SDS011;132;48.770;9.200;2023-02-11T00:44:17;50.72;;;22.48;;
295;SDS011;132;48.770;9.200;2023-02-11T00:46:46;62.22;;;24.08;;
295;SDS011;132;48.770;9.200;2023-02-11T00:49:13;51.45;;;23.35;;
295;SDS011;132;48.770;9.200;2023-02-11T00:51:40;55.63;;;23.85;;
295;SDS011;132;48.770;9.200;2023-02-11T00:54:07;52.88;;;22.27;;
295;SDS011;132;48.770;9.200;2023-02-11T00:56:33;52.00;;;22.80;;
295;SDS011;132;48.770;9.200;2023-02-11T00:58:59;56.40;;;22.55;;
295;SDS011;132;48.770;9.200;2023-02-11T01:01:26;56.28;;;23.20;;
295;SDS011;132;48.770;9.200;2023-02-11T01:03:52;53.55;;;23.65;;
295;SDS011;132;48.770;9.200;2023-02-11T01:06:21;55.92;;;22.83;;
295;SDS011;132;48.770;9.200;2023-02-11T01:08:48;51.92;;;23.13;;
295;SDS011;132;48.770;9.200;2023-02-11T01:11:16;52.10;;;21.98;;
295;SDS011;132;48.770;9.200;2023-02-11T01:13:45;51.22;;;22.40;;
295;SDS011;132;48.770;9.200;2023-02-11T01:16:13;55.88;;;23.63;;
295;SDS011;132;48.770;9.200;2023-02-11T01:18:40;52.80;;;24.10;;
295;SDS011;132;48.770;9.200;2023-02-11T01:21:09;52.53;;;22.48;;
295;SDS011;132;48.770;9.200;2023-02-11T01:23:35;51.58;;;23.73;;
295;SDS011;132;48.770;9.200;2023-02-11T01:26:04;52.53;;;23.73;;
295;SDS011;132;48.770;9.200;2023-02-11T01:28:30;51.00;;;22.50;;
295;SDS011;132;48.770;9.200;2023-02-11T01:30:59;54.22;;;23.40;;
295;SDS011;132;48.770;9.200;2023-02-11T01:33:26;50.78;;;22.90;;
295;SDS011;132;48.770;9.200;2023-02-11T01:35:53;55.92;;;23.80;;
295;SDS011;132;48.770;9.200;2023-02-11T01:38:21;56.95;;;23.55;;
295;SDS011;132;48.770;9.200;2023-02-11T01:40:55;64.15;;;24.15;;
295;SDS011;132;48.770;9.200;2023-02-11T01:43:30;54.47;;;23.10;;
295;SDS011;132;48.770;9.200;2023-02-11T01:48:36;58.05;;;23.92;;
295;SDS011;132;48.770;9.200;2023-02-11T01:51:13;55.67;;;24.25;;
295;SDS011;132;48.770;9.200;2023-02-11T01:53:44;57.78;;;23.10;;
295;SDS011;132;48.770;9.200;2023-02-11T01:56:31;55.80;;;22.77;;
295;SDS011;132;48.770;9.200;2023-02-11T01:59:31;54.85;;;23.23;;
295;SDS011;132;48.770;9.200;2023-02-11T02:02:05;54.92;;;23.40;;
295;SDS011;132;48.770;9.200;2023-02-11T02:04:39;53.00;;;23.50;;
295;SDS011;132;48.770;9.200;2023-02-11T02:07:13;51.20;;;22.60;;
295;SDS011;132;48.770;9.200;2023-02-11T02:09:45;52.25;;;22.60;;
295;SDS011;132;48.770;9.200;2023-02-11T02:12:16;49.45;;;21.45;;
295;SDS011;132;48.770;9.200;2023-02-11T02:14:43;54.60;;;23.38;;
295;SDS011;132;48.770;9.200;2023-02-11T02:17:09;47.28;;;21.33;;
295;SDS011;132;48.770;9.200;2023-02-11T02:20:16;50.85;;;21.17;;
295;SDS011;132;48.770;9.200;2023-02-11T02:23:04;55.50;;;22.38;;
295;SDS011;132;48.770;9.200;2023-02-11T02:34:14;45.95;;;20.48;;
295;SDS011;132;48.770;9.200;2023-02-11T02:37:03;48.65;;;21.20;;
295;SDS011;132;48.770;9.200;2023-02-11T02:39:37;47.58;;;20.95;;
295;SDS011;132;48.770;9.200;2023-02-11T02:42:04;47.63;;;19.98;;
295;SDS011;132;48.770;9.200;2023-02-11T02:44:31;51.63;;;21.73;;
295;SDS011;132;48.770;9.200;2023-02-11T02:46:58;47.10;;;20.70;;
295;SDS011;132;48.770;9.200;2023-02-11T02:49:24;46.85;;;20.02;;
295;SDS011;132;48.770;9.200;2023-02-11T03:05:29;51.45;;;21.83;;
295;SDS011;132;48.770;9.200;2023-02-11T03:08:09;50.22;;;20.35;;
295;SDS011;132;48.770;9.200;2023-02-11T03:10:42;48.88;;;20.10;;
295;SDS011;132;48.770;9.200;2023-02-11T03:13:12;51.45;;;22.60;;
295;SDS011;132;48.770;9.200;2023-02-11T03:15:47;47.80;;;20.58;;
295;SDS011;132;48.770;9.200;2023-02-11T03:18:17;48.70;;;22.08;;
295;SDS011;132;48.770;9.200;2023-02-11T03:20:47;54.72;;;23.20;;
295;SDS011;132;48.770;9.200;2023-02-11T03:25:51;46.00;;;20.60;;
295;SDS011;132;48.770;9.200;2023-02-11T03:28:37;53.35;;;22.60;;
295;SDS011;132;48.770;9.200;2023-02-11T03:31:17;46.28;;;21.42;;
295;SDS011;132;48.770;9.200;2023-02-11T03:33:53;51.88;;;22.15;;
295;SDS011;132;48.770;9.200;2023-02-11T03:36:41;42.30;;;19.45;;
295;SDS011;132;48.770;9.200;2023-02-11T03:39:16;42.63;;;19.45;;
295;SDS011;132;48.770;9.200;2023-02-11T03:41:46;46.38;;;19.40;;
295;SDS011;132;48.770;9.200;2023-02-11T03:44:14;46.72;;;19.60;;
295;SDS011;132;48.770;9.200;2023-02-11T03:46:43;40.08;;;18.92;;
295;SDS011;132;48.770;9.200;2023-02-11T03:49:14;43.28;;;18.33;;
295;SDS011;132;48.770;9.200;2023-02-11T03:51:45;39.42;;;18.33;;
295;SDS011;132;48.770;9.200;2023-02-11T03:54:14;38.13;;;17.65;;
295;SDS011;132;48.770;9.200;2023-02-11T03:56:48;44.50;;;19.25;;
295;SDS011;132;48.770;9.200;2023-02-11T03:59:17;39.75;;;18.27;;
295;SDS011;132;48.770;9.200;2023-02-11T04:01:44;45.55;;;19.15;;
295;SDS011;132;48.770;9.200;2023-02-11T04:04:10;44.42;;;18.52;;
295;SDS011;132;48.770;9.200;2023-02-11T04:06:37;41.53;;;18.52;;
295;SDS011;132;48.770;9.200;2023-02-11T04:09:04;40.80;;;18.25;;
295;SDS011;132;48.770;9.200;2023-02-11T04:11:31;38.38;;;16.90;;
295;SDS011;132;48.770;9.200;2023-02-11T04:13:57;37.63;;;16.67;;
295;SDS011;132;48.770;9.200;2023-02-11T04:16:24;42.10;;;17.05;;
295;SDS011;132;48.770;9.200;2023-02-11T04:18:50;31.70;;;15.90;;
295;SDS011;132;48.770;9.200;2023-02-11T04:21:16;39.80;;;17.48;;
295;SDS011;132;48.770;9.200;2023-02-11T04:23:43;42.47;;;18.17;;
295;SDS011;132;48.770;9.200;2023-02-11T04:26:09;41.55;;;19.05;;
295;SDS011;132;48.770;9.200;2023-02-11T04:28:36;39.55;;;18.05;;
295;SDS011;132;48.770;9.200;2023-02-11T04:31:02;42.65;;;17.58;;
295;SDS011;132;48.770;9.200;2023-02-11T04:33:29;36.08;;;16.95;;
295;SDS011;132;48.770;9.200;2023-02-11T04:35:55;39.47;;;17.85;;
295;SDS011;132;48.770;9.200;2023-02-11T04:38:22;39.15;;;18.10;;
295;SDS011;132;48.770;9.200;2023-02-11T04:40:51;36.67;;;17.45;;
295;SDS011;132;48.770;9.200;2023-02-11T04:43:17;34.00;;;16.27;;
295;SDS011;132;48.770;9.200;2023-02-11T04:45:44;34.70;;;15.98;;
295;SDS011;132;48.770;9.200;2023-02-11T04:48:10;34.17;;;16.00;;
295;SDS011;132;48.770;9.200;2023-02-11T04:50:36;33.28;;;15.05;;
295;SDS011;132;48.770;9.200;2023-02-11T04:53:03;33.83;;;16.65;;
295;SDS011;132;48.770;9.200;2023-02-11T04:55:29;37.53;;;17.95;;
295;SDS011;132;48.770;9.200;2023-02-11T04:57:55;41.22;;;20.08;;
295;SDS011;132;48.770;9.200;2023-02-11T05:00:22;41.85;;;20.85;;
295;SDS011;132;48.770;9.200;2023-02-11T05:02:48;44.40;;;20.17;;
295;SDS011;132;48.770;9.200;2023-02-11T05:05:14;49.28;;;20.75;;
295;SDS011;132;48.770;9.200;2023-02-11T05:07:41;38.15;;;19.23;;
295;SDS011;132;48.770;9.200;2023-02-11T05:10:07;41.65;;;19.25;;
295;SDS011;132;48.770;9.200;2023-02-11T05:12:34;41.15;;;18.35;;
295;SDS011;132;48.770;9.200;2023-02-11T05:15:00;45.42;;;21.05;;
295;SDS011;132;48.770;9.200;2023-02-11T05:17:27;43.60;;;21.10;;
295;SDS011;132;48.770;9.200;2023-02-11T05:19:53;43.67;;;21.40;;
295;SDS011;132;48.770;9.200;2023-02-11T05:22:20;47.72;;;21.00;;
295;SDS011;132;48.770;9.200;2023-02-11T05:24:46;43.05;;;20.35;;
295;SDS011;132;48.770;9.200;2023-02-11T05:27:13;36.20;;;18.20;;
295;SDS011;132;48.770;9.200;2023-02-11T05:29:39;35.55;;;17.85;;
295;SDS011;132;48.770;9.200;2023-02-11T05:32:06;32.97;;;16.35;;
295;SDS011;132;48.770;9.200;2023-02-11T05:34:34;35.03;;;16.08;;
295;SDS011;132;48.770;9.200;2023-02-11T05:37:01;35.92;;;16.77;;
295;SDS011;132;48.770;9.200;2023-02-11T05:39:27;33.53;;;15.98;;
295;SDS011;132;48.770;9.200;2023-02-11T05:41:53;43.00;;;20.45;;
295;SDS011;132;48.770;9.200;2023-02-11T05:44:20;42.40;;;20.73;;
295;SDS011;132;48.770;9.200;2023-02-11T05:46:46;45.80;;;22.17;;
295;SDS011;132;48.770;9.200;2023-02-11T05:49:15;40.83;;;20.30;;
295;SDS011;132;48.770;9.200;2023-02-11T05:51:41;44.33;;;21.52;;
295;SDS011;132;48.770;9.200;2023-02-11T05:54:08;47.50;;;23.02;;
295;SDS011;132;48.770;9.200;2023-02-11T05:56:34;50.85;;;21.83;;
295;SDS011;132;48.770;9.200;2023-02-11T05:59:00;42.90;;;21.30;;
295;SDS011;132;48.770;9.200;2023-02-11T06:01:27;43.20;;;21.92;;
295;SDS011;132;48.770;9.200;2023-02-11T06:03:53;47.80;;;23.40;;
295;SDS011;132;48.770;9.200;2023-02-11T06:06:20;43.05;;;20.65;;
295;SDS011;132;48.770;9.200;2023-02-11T06:08:46;45.78;;;22.13;;
295;SDS011;132;48.770;9.200;2023-02-11T06:11:13;44.17;;;21.42;;
295;SDS011;132;48.770;9.200;2023-02-11T06:13:41;43.33;;;21.27;;
295;SDS011;132;48.770;9.200;2023-02-11T06:16:07;36.75;;;18.30;;
295;SDS011;132;48.770;9.200;2023-02-11T06:18:33;43.90;;;22.10;;
295;SDS011;132;48.770;9.200;2023-02-11T06:21:00;44.53;;;21.50;;
295;SDS011;132;48.770;9.200;2023-02-11T06:23:26;43.47;;;21.35;;
295;SDS011;132;48.770;9.200;2023-02-11T06:25:53;47.03;;;22.35;;
295;SDS011;132;48.770;9.200;2023-02-11T06:28:19;46.72;;;22.38;;
295;SDS011;132;48.770;9.200;2023-02-11T06:30:46;42.00;;;21.50;;
295;SDS011;132;48.770;9.200;2023-02-11T06:33:12;49.13;;;23.30;;
295;SDS011;132;48.770;9.200;2023-02-11T06:35:38;41.80;;;20.98;;
295;SDS011;132;48.770;9.200;2023-02-11T06:38:05;44.22;;;20.67;;
295;SDS011;132;48.770;9.200;2023-02-11T06:40:31;46.08;;;22.17;;
295;SDS011;132;48.770;9.200;2023-02-11T06:42:58;40.83;;;19.98;;
295;SDS011;132;48.770;9.200;2023-02-11T06:45:24;38.78;;;19.27;;
295;SDS011;132;48.770;9.200;2023-02-11T06:47:51;41.22;;;19.98;;
295;SDS011;132;48.770;9.200;2023-02-11T06:50:17;44.90;;;20.77;;
295;SDS011;132;48.770;9.200;2023-02-11T06:52:44;49.42;;;21.13;;
295;SDS011;132;48.770;9.200;2023-02-11T06:55:10;45.10;;;20.33;;
295;SDS011;132;48.770;9.200;2023-02-11T06:57:36;46.97;;;20.75;;
295;SDS011;132;48.770;9.200;2023-02-11T07:00:03;47.80;;;22.40;;
295;SDS011;132;48.770;9.200;2023-02-11T07:02:31;44.60;;;22.00;;
295;SDS011;132;48.770;9.200;2023-02-11T07:04:57;49.55;;;23.05;;
295;SDS011;132;48.770;9.200;2023-02-11T07:07:23;42.83;;;21.63;;
295;SDS011;132;48.770;9.200;2023-02-11T07:09:50;49.85;;;22.45;;
295;SDS011;132;48.770;9.200;2023-02-11T07:12:16;48.15;;;22.88;;
295;SDS011;132;48.770;9.200;2023-02-11T07:14:42;46.58;;;22.55;;
295;SDS011;132;48.770;9.200;2023-02-11T07:17:09;43.90;;;22.63;;
295;SDS011;132;48.770;9.200;2023-02-11T07:19:35;44.20;;;21.38;;
295;SDS011;132;48.770;9.200;2023-02-11T07:22:01;42.55;;;20.90;;
295;SDS011;132;48.770;9.200;2023-02-11T07:24:28;40.70;;;20.27;;
295;SDS011;132;48.770;9.200;2023-02-11T07:26:54;42.38;;;20.35;;
295;SDS011;132;48.770;9.200;2023-02-11T07:29:20;45.47;;;22.58;;
295;SDS011;132;48.770;9.200;2023-02-11T07:31:47;38.25;;;19.25;;
295;SDS011;132;48.770;9.200;2023-02-11T07:34:13;44.00;;;22.35;;
295;SDS011;132;48.770;9.200;2023-02-11T07:36:40;45.05;;;20.95;;
295;SDS011;132;48.770;9.200;2023-02-11T07:39:08;46.28;;;24.20;;
295;SDS011;132;48.770;9.200;2023-02-11T07:41:34;44.10;;;20.98;;
295;SDS011;132;48.770;9.200;2023-02-11T07:44:01;44.55;;;23.90;;
295;SDS011;132;48.770;9.200;2023-02-11T07:46:28;45.65;;;23.05;;
295;SDS011;132;48.770;9.200;2023-02-11T07:48:54;39.50;;;21.02;;
295;SDS011;132;48.770;9.200;2023-02-11T07:51:22;52.00;;;21.75;;
295;SDS011;132;48.770;9.200;2023-02-11T07:53:50;41.90;;;20.73;;
295;SDS011;132;48.770;9.200;2023-02-11T07:56:17;36.13;;;18.50;;
295;SDS011;132;48.770;9.200;2023-02-11T07:58:44;32.75;;;17.63;;
295;SDS011;132;48.770;9.200;2023-02-11T08:01:12;32.00;;;16.70;;
295;SDS011;132;48.770;9.200;2023-02-11T08:03:41;38.67;;;17.98;;
295;SDS011;132;48.770;9.200;2023-02-11T08:06:09;36.90;;;19.60;;
295;SDS011;132;48.770;9.200;2023-02-11T08:08:37;37.42;;;18.52;;
295;SDS011;132;48.770;9.200;2023-02-11T08:11:05;37.45;;;18.75;;
295;SDS011;132;48.770;9.200;2023-02-11T08:13:36;34.10;;;17.23;;
295;SDS011;132;48.770;9.200;2023-02-11T08:16:03;33.15;;;17.00;;
295;SDS011;132;48.770;9.200;2023-02-11T08:18:30;35.80;;;17.70;;
295;SDS011;132;48.770;9.200;2023-02-11T08:21:02;32.65;;;17.65;;
295;SDS011;132;48.770;9.200;2023-02-11T08:23:30;34.35;;;17.75;;
295;SDS011;132;48.770;9.200;2023-02-11T08:26:03;33.58;;;17.10;;
295;SDS011;132;48.770;9.200;2023-02-11T08:28:33;29.50;;;15.70;;
295;SDS011;132;48.770;9.200;2023-02-11T08:31:08;37.53;;;19.40;;
295;SDS011;132;48.770;9.200;2023-02-11T08:33:36;40.42;;;21.65;;
295;SDS011;132;48.770;9.200;2023-02-11T08:36:08;43.95;;;21.30;;
295;SDS011;132;48.770;9.200;2023-02-11T08:38:36;43.03;;;21.92;;
295;SDS011;132;48.770;9.200;2023-02-11T08:41:03;46.00;;;22.60;;
295;SDS011;132;48.770;9.200;2023-02-11T08:53:00;40.90;;;21.60;;
295;SDS011;132;48.770;9.200;2023-02-11T09:07:58;28.00;;;14.00;;
295;SDS011;132;48.770;9.200;2023-02-11T09:10:24;26.45;;;13.63;;
295;SDS011;132;48.770;9.200;2023-02-11T09:12:51;22.05;;;11.77;;
295;SDS011;132;48.770;9.200;2023-02-11T09:15:17;22.85;;;11.90;;
295;SDS011;132;48.770;9.200;2023-02-11T09:17:45;21.10;;;11.43;;
295;SDS011;132;48.770;9.200;2023-02-11T09:20:11;36.22;;;20.77;;
295;SDS011;132;48.770;9.200;2023-02-11T09:22:37;46.65;;;23.00;;
295;SDS011;132;48.770;9.200;2023-02-11T09:25:04;47.13;;;23.05;;
295;SDS011;132;48.770;9.200;2023-02-11T09:27:31;45.08;;;23.48;;
295;SDS011;132;48.770;9.200;2023-02-11T09:29:57;45.05;;;24.15;;
295;SDS011;132;48.770;9.200;2023-02-11T09:32:24;46.17;;;21.48;;
295;SDS011;132;48.770;9.200;2023-02-11T09:34:50;35.83;;;19.45;;
295;SDS011;132;48.770;9.200;2023-02-11T09:37:17;37.63;;;19.35;;
295;SDS011;132;48.770;9.200;2023-02-11T09:39:43;39.88;;;20.65;;
295;SDS011;132;48.770;9.200;2023-02-11T09:42:28;31.08;;;18.27;;
295;SDS011;132;48.770;9.200;2023-02-11T09:45:09;35.33;;;15.75;;
295;SDS011;132;48.770;9.200;2023-02-11T09:48:03;32.83;;;16.25;;
295;SDS011;132;48.770;9.200;2023-02-11T09:50:39;22.70;;;13.60;;
295;SDS011;132;48.770;9.200;2023-02-11T09:53:17;26.10;;;13.90;;
295;SDS011;132;48.770;9.200;2023-02-11T09:55:56;24.75;;;12.60;;
295;SDS011;132;48.770;9.200;2023-02-11T09:58:29;21.17;;;12.23;;
295;SDS011;132;48.770;9.200;2023-02-11T10:06:38;19.05;;;10.20;;
295;SDS011;132;48.770;9.200;2023-02-11T10:09:26;18.17;;;10.98;;
295;SDS011;132;48.770;9.200;2023-02-11T10:15:03;41.85;;;20.50;;
295;SDS011;132;48.770;9.200;2023-02-11T10:20:24;36.17;;;20.33;;
295;SDS011;132;48.770;9.200;2023-02-11T10:23:18;36.83;;;19.63;;
295;SDS011;132;48.770;9.200;2023-02-11T10:25:52;45.67;;;20.70;;
295;SDS011;132;48.770;9.200;2023-02-11T10:28:22;40.45;;;20.70;;
295;SDS011;132;48.770;9.200;2023-02-11T10:31:03;42.95;;;22.38;;
295;SDS011;132;48.770;9.200;2023-02-11T10:36:15;44.97;;;22.15;;
295;SDS011;132;48.770;9.200;2023-02-11T10:38:44;33.97;;;20.73;;
295;SDS011;132;48.770;9.200;2023-02-11T10:41:17;43.45;;;23.60;;
295;SDS011;132;48.770;9.200;2023-02-11T10:43:47;38.88;;;21.55;;
295;SDS011;132;48.770;9.200;2023-02-11T10:46:18;41.42;;;22.08;;
295;SDS011;132;48.770;9.200;2023-02-11T10:48:49;40.85;;;21.85;;
295;SDS011;132;48.770;9.200;2023-02-11T10:51:28;43.10;;;21.75;;
295;SDS011;132;48.770;9.200;2023-02-11T10:56:35;38.65;;;21.40;;
295;SDS011;132;48.770;9.200;2023-02-11T10:59:06;66.32;;;23.30;;
295;SDS011;132;48.770;9.200;2023-02-11T11:01:52;45.92;;;22.30;;
295;SDS011;132;48.770;9.200;2023-02-11T11:07:20;41.70;;;20.77;;
295;SDS011;132;48.770;9.200;2023-02-11T11:10:02;37.10;;;19.08;;
295;SDS011;132;48.770;9.200;2023-02-11T11:12:46;34.15;;;17.98;;
295;SDS011;132;48.770;9.200;2023-02-11T11:15:18;32.00;;;16.73;;
295;SDS011;132;48.770;9.200;2023-02-11T11:17:50;28.27;;;16.23;;
295;SDS011;132;48.770;9.200;2023-02-11T11:20:35;30.23;;;17.45;;
295;SDS011;132;48.770;9.200;2023-02-11T11:25:57;31.05;;;17.38;;
295;SDS011;132;48.770;9.200;2023-02-11T11:28:36;27.70;;;16.63;;
295;SDS011;132;48.770;9.200;2023-02-11T11:31:29;26.52;;;14.85;;
295;SDS011;132;48.770;9.200;2023-02-11T11:33:59;27.38;;;14.90;;
295;SDS011;132;48.770;9.200;2023-02-11T11:36:35;24.88;;;14.60;;
295;SDS011;132;48.770;9.200;2023-02-11T11:39:24;26.05;;;14.20;;
295;SDS011;132;48.770;9.200;2023-02-11T11:42:03;23.92;;;13.35;;
295;SDS011;132;48.770;9.200;2023-02-11T11:44:55;26.92;;;13.40;;
295;SDS011;132;48.770;9.200;2023-02-11T11:52:36;25.20;;;12.60;;
295;SDS011;132;48.770;9.200;2023-02-11T11:57:31;25.10;;;12.70;;
295;SDS011;132;48.770;9.200;2023-02-11T12:00:04;22.65;;;12.38;;
295;SDS011;132;48.770;9.200;2023-02-11T12:05:52;20.00;;;12.23;;
295;SDS011;132;48.770;9.200;2023-02-11T12:14:45;22.48;;;12.13;;
295;SDS011;132;48.770;9.200;2023-02-11T12:20:29;22.63;;;12.82;;
295;SDS011;132;48.770;9.200;2023-02-11T12:25:45;23.60;;;12.88;;
295;SDS011;132;48.770;9.200;2023-02-11T12:28:25;18.75;;;12.45;;
295;SDS011;132;48.770;9.200;2023-02-11T12:34:00;19.83;;;12.35;;
295;SDS011;132;48.770;9.200;2023-02-11T12:39:50;22.17;;;11.70;;
295;SDS011;132;48.770;9.200;2023-02-11T12:45:48;22.00;;;12.70;;
295;SDS011;132;48.770;9.200;2023-02-11T12:51:51;17.37;;;10.77;;
295;SDS011;132;48.770;9.200;2023-02-11T12:54:29;17.70;;;10.07;;
295;SDS011;132;48.770;9.200;2023-02-11T12:56:59;16.10;;;10.00;;
295;SDS011;132;48.770;9.200;2023-02-11T13:05:42;17.55;;;8.23;;
295;SDS011;132;48.770;9.200;2023-02-11T13:08:24;12.73;;;8.37;;
295;SDS011;132;48.770;9.200;2023-02-11T13:11:44;18.48;;;8.70;;
295;SDS011;132;48.770;9.200;2023-02-11T13:13:58;15.53;;;8.77;;
295;SDS011;132;48.770;9.200;2023-02-11T13:19:06;11.10;;;7.80;;
295;SDS011;132;48.770;9.200;2023-02-11T13:24:46;11.90;;;7.47;;
295;SDS011;132;48.770;9.200;2023-02-11T13:27:28;16.33;;;8.97;;
295;SDS011;132;48.770;9.200;2023-02-11T13:30:12;14.57;;;8.27;;
295;SDS011;132;48.770;9.200;2023-02-11T13:33:05;19.23;;;9.50;;
295;SDS011;132;48.770;9.200;2023-02-11T13:35:48;24.23;;;12.90;;
295;SDS011;132;48.770;9.200;2023-02-11T13:38:36;21.63;;;12.10;;
295;SDS011;132;48.770;9.200;2023-02-11T13:41:06;21.00;;;11.18;;
295;SDS011;132;48.770;9.200;2023-02-11T13:43:40;23.52;;;12.98;;
295;SDS011;132;48.770;9.200;2023-02-11T13:46:08;23.27;;;12.43;;
295;SDS011;132;48.770;9.200;2023-02-11T13:48:38;21.08;;;12.43;;
295;SDS011;132;48.770;9.200;2023-02-11T13:51:14;22.70;;;11.60;;
295;SDS011;132;48.770;9.200;2023-02-11T13:53:53;26.60;;;12.90;;
295;SDS011;132;48.770;9.200;2023-02-11T13:56:27;25.58;;;13.43;;
295;SDS011;132;48.770;9.200;2023-02-11T13:58:55;25.08;;;13.45;;
295;SDS011;132;48.770;9.200;2023-02-11T14:04:33;27.30;;;14.25;;
295;SDS011;132;48.770;9.200;2023-02-11T14:07:31;26.75;;;14.88;;
295;SDS011;132;48.770;9.200;2023-02-11T14:16:01;25.30;;;13.10;;
295;SDS011;132;48.770;9.200;2023-02-11T14:21:21;28.00;;;14.48;;
295;SDS011;132;48.770;9.200;2023-02-11T14:29:23;27.98;;;15.65;;
295;SDS011;132;48.770;9.200;2023-02-11T14:39:57;26.67;;;14.40;;
295;SDS011;132;48.770;9.200;2023-02-11T14:42:46;30.67;;;14.30;;
295;SDS011;132;48.770;9.200;2023-02-11T14:45:15;29.08;;;14.60;;
295;SDS011;132;48.770;9.200;2023-02-11T14:47:48;26.95;;;13.88;;
295;SDS011;132;48.770;9.200;2023-02-11T14:50:26;38.13;;;14.35;;
295;SDS011;132;48.770;9.200;2023-02-11T14:52:57;23.98;;;13.07;;
295;SDS011;132;48.770;9.200;2023-02-11T15:00:59;26.30;;;12.60;;
295;SDS011;132;48.770;9.200;2023-02-11T15:03:38;21.48;;;11.73;;
295;SDS011;132;48.770;9.200;2023-02-11T15:08:54;21.42;;;10.85;;
295;SDS011;132;48.770;9.200;2023-02-11T15:11:26;19.77;;;11.48;;
295;SDS011;132;48.770;9.200;2023-02-11T15:13:56;22.95;;;11.52;;
295;SDS011;132;48.770;9.200;2023-02-11T15:16:26;22.35;;;11.50;;
295;SDS011;132;48.770;9.200;2023-02-11T15:18:55;22.33;;;11.70;;
295;SDS011;132;48.770;9.200;2023-02-11T15:21:27;21.50;;;11.88;;
295;SDS011;132;48.770;9.200;2023-02-11T15:26:27;29.02;;;15.05;;
295;SDS011;132;48.770;9.200;2023-02-11T15:28:54;25.63;;;15.25;;
295;SDS011;132;48.770;9.200;2023-02-11T15:31:22;24.83;;;13.52;;
295;SDS011;132;48.770;9.200;2023-02-11T15:33:50;26.73;;;14.73;;
295;SDS011;132;48.770;9.200;2023-02-11T15:36:18;25.50;;;14.60;;
295;SDS011;132;48.770;9.200;2023-02-11T15:41:44;31.67;;;16.23;;
295;SDS011;132;48.770;9.200;2023-02-11T15:44:27;28.05;;;14.73;;
295;SDS011;132;48.770;9.200;2023-02-11T15:46:55;25.60;;;14.10;;
295;SDS011;132;48.770;9.200;2023-02-11T15:49:22;29.85;;;14.95;;
295;SDS011;132;48.770;9.200;2023-02-11T15:51:50;30.20;;;15.50;;
295;SDS011;132;48.770;9.200;2023-02-11T15:54:20;28.35;;;14.35;;
295;SDS011;132;48.770;9.200;2023-02-11T15:56:51;33.25;;;15.77;;
295;SDS011;132;48.770;9.200;2023-02-11T16:01:56;25.55;;;14.45;;
295;SDS011;132;48.770;9.200;2023-02-11T16:04:30;27.13;;;15.20;;
295;SDS011;132;48.770;9.200;2023-02-11T16:06:56;28.85;;;14.93;;
295;SDS011;132;48.770;9.200;2023-02-11T16:14:26;28.92;;;16.27;;
295;SDS011;132;48.770;9.200;2023-02-11T16:16:57;26.85;;;15.60;;
295;SDS011;132;48.770;9.200;2023-02-11T16:19:44;28.05;;;15.68;;
295;SDS011;132;48.770;9.200;2023-02-11T16:22:17;31.95;;;15.18;;
295;SDS011;132;48.770;9.200;2023-02-11T16:24:48;25.85;;;15.50;;
295;SDS011;132;48.770;9.200;2023-02-11T16:29:55;31.00;;;15.45;;
295;SDS011;132;48.770;9.200;2023-02-11T16:32:24;29.88;;;16.58;;
295;SDS011;132;48.770;9.200;2023-02-11T16:34:52;30.38;;;16.98;;
295;SDS011;132;48.770;9.200;2023-02-11T16:37:20;29.05;;;16.70;;
295;SDS011;132;48.770;9.200;2023-02-11T16:39:46;30.23;;;16.83;;
295;SDS011;132;48.770;9.200;2023-02-11T16:42:13;28.83;;;15.95;;
295;SDS011;132;48.770;9.200;2023-02-11T16:44:39;29.10;;;15.30;;
295;SDS011;132;48.770;9.200;2023-02-11T16:47:06;29.70;;;17.15;;
295;SDS011;132;48.770;9.200;2023-02-11T16:49:41;36.00;;;17.60;;
295;SDS011;132;48.770;9.200;2023-02-11T16:52:08;32.38;;;17.88;;
295;SDS011;132;48.770;9.200;2023-02-11T16:54:39;28.83;;;16.92;;
295;SDS011;132;48.770;9.200;2023-02-11T16:57:15;31.40;;;17.67;;
295;SDS011;132;48.770;9.200;2023-02-11T16:59:45;26.73;;;15.93;;
295;SDS011;132;48.770;9.200;2023-02-11T17:02:14;28.23;;;15.65;;
295;SDS011;132;48.770;9.200;2023-02-11T17:04:53;29.05;;;15.70;;
295;SDS011;132;48.770;9.200;2023-02-11T17:07:21;28.65;;;15.15;;
295;SDS011;132;48.770;9.200;2023-02-11T17:09:47;31.15;;;16.75;;
295;SDS011;132;48.770;9.200;2023-02-11T17:12:14;31.40;;;17.48;;
295;SDS011;132;48.770;9.200;2023-02-11T17:14:40;30.10;;;18.45;;
295;SDS011;132;48.770;9.200;2023-02-11T17:17:08;30.98;;;17.50;;
295;SDS011;132;48.770;9.200;2023-02-11T17:19:35;34.15;;;18.02;;
295;SDS011;132;48.770;9.200;2023-02-11T17:22:02;35.20;;;18.50;;
295;SDS011;132;48.770;9.200;2023-02-11T17:24:29;32.85;;;17.48;;
295;SDS011;132;48.770;9.200;2023-02-11T17:26:55;38.80;;;18.92;;
295;SDS011;132;48.770;9.200;2023-02-11T17:29:23;36.97;;;18.45;;
295;SDS011;132;48.770;9.200;2023-02-11T17:31:51;33.10;;;17.75;;
295;SDS011;132;48.770;9.200;2023-02-11T17:34:18;34.17;;;17.85;;
295;SDS011;132;48.770;9.200;2023-02-11T17:36:46;31.13;;;17.08;;
295;SDS011;132;48.770;9.200;2023-02-11T17:39:13;31.85;;;18.55;;
295;SDS011;132;48.770;9.200;2023-02-11T17:41:40;34.53;;;18.05;;
295;SDS011;132;48.770;9.200;2023-02-11T17:44:07;33.00;;;18.10;;
295;SDS011;132;48.770;9.200;2023-02-11T17:46:34;29.13;;;17.38;;
295;SDS011;132;48.770;9.200;2023-02-11T17:49:00;33.40;;;19.58;;
295;SDS011;132;48.770;9.200;2023-02-11T17:51:28;32.17;;;16.95;;
295;SDS011;132;48.770;9.200;2023-02-11T17:53:58;33.03;;;18.55;;
295;SDS011;132;48.770;9.200;2023-02-11T17:56:26;37.33;;;18.45;;
295;SDS011;132;48.770;9.200;2023-02-11T17:58:54;36.67;;;18.85;;
295;SDS011;132;48.770;9.200;2023-02-11T18:01:21;38.22;;;19.17;;
295;SDS011;132;48.770;9.200;2023-02-11T18:03:47;34.67;;;17.83;;
295;SDS011;132;48.770;9.200;2023-02-11T18:06:14;31.67;;;18.10;;
295;SDS011;132;48.770;9.200;2023-02-11T18:08:40;32.28;;;17.92;;
295;SDS011;132;48.770;9.200;2023-02-11T18:11:08;29.45;;;16.92;;
295;SDS011;132;48.770;9.200;2023-02-11T18:13:35;35.55;;;18.55;;
295;SDS011;132;48.770;9.200;2023-02-11T18:16:02;35.72;;;19.15;;
295;SDS011;132;48.770;9.200;2023-02-11T18:18:30;31.70;;;18.27;;
295;SDS011;132;48.770;9.200;2023-02-11T18:20:57;33.35;;;18.02;;
295;SDS011;132;48.770;9.200;2023-02-11T18:23:24;34.63;;;19.40;;